createdAt,value
2024-03-05T00:01:29.559Z,74.56
2024-03-05T00:03:57.254Z,74.48
2024-03-05T00:06:24.919Z,74.51
2024-03-05T00:08:52.570Z,74.61
2024-03-05T00:11:20.187Z,74.66
2024-03-05T00:13:48.016Z,74.59
2024-03-05T00:16:15.699Z,74.58
2024-03-05T00:18:43.240Z,74.70
2024-03-05T00:21:10.880Z,74.61
2024-03-05T00:23:38.438Z,74.57
2024-03-05T00:26:06.107Z,74.55
2024-03-05T00:28:34.123Z,74.65
2024-03-05T00:31:01.732Z,74.58
2024-03-05T00:33:29.289Z,74.53
2024-03-05T00:35:56.959Z,74.47
2024-03-05T00:38:29.080Z,74.61
2024-03-05T00:41:01.322Z,74.82
2024-03-05T00:43:29.204Z,74.89
2024-03-05T00:45:56.857Z,75.04
2024-03-05T00:48:24.653Z,75.13
2024-03-05T00:50:52.240Z,75.22
2024-03-05T00:53:20.213Z,75.25
2024-03-05T00:55:47.791Z,75.21
2024-03-05T00:58:15.348Z,75.23
2024-03-05T01:00:42.887Z,75.41
2024-03-05T01:03:10.459Z,75.64
2024-03-05T01:05:38.104Z,75.85
2024-03-05T01:08:05.687Z,75.90
2024-03-05T01:10:33.252Z,75.97
2024-03-05T01:13:00.898Z,76.15
2024-03-05T01:15:28.515Z,76.30
2024-03-05T01:17:56.649Z,76.36
2024-03-05T01:20:24.280Z,76.12
2024-03-05T01:22:51.899Z,75.78
2024-03-05T01:25:19.633Z,75.85
2024-03-05T01:27:47.272Z,75.83
2024-03-05T01:30:14.946Z,75.93
2024-03-05T01:32:42.637Z,76.03
2024-03-05T01:35:10.163Z,76.17
2024-03-05T01:37:37.819Z,76.28
2024-03-05T01:40:05.577Z,76.37
2024-03-05T01:42:33.442Z,76.30
2024-03-05T01:45:00.920Z,76.29
2024-03-05T01:47:28.688Z,76.32
2024-03-05T01:49:56.579Z,76.43
2024-03-05T01:52:24.354Z,76.54
2024-03-05T01:54:52.161Z,76.57
2024-03-05T01:57:19.930Z,76.79
2024-03-05T01:59:47.584Z,76.94
2024-03-05T02:02:15.358Z,77.18
2024-03-05T02:04:43.153Z,77.26
2024-03-05T02:07:11.093Z,77.40
2024-03-05T02:09:38.740Z,77.41
2024-03-05T02:12:06.453Z,77.55
2024-03-05T02:14:34.183Z,77.59
2024-03-05T02:17:01.981Z,77.80
2024-03-05T02:19:29.878Z,77.95
2024-03-05T02:21:57.665Z,78.30
2024-03-05T02:24:25.226Z,78.62
2024-03-05T02:26:52.902Z,78.84
2024-03-05T02:29:20.451Z,79.02
2024-03-05T02:31:48.212Z,79.12
2024-03-05T02:34:16.198Z,79.40
2024-03-05T02:36:43.735Z,79.36
2024-03-05T02:39:11.307Z,79.57
2024-03-05T02:41:38.964Z,79.68
2024-03-05T02:44:06.629Z,79.85
2024-03-05T02:46:34.311Z,79.93
2024-03-05T02:49:01.844Z,79.96
2024-03-05T02:51:29.500Z,79.99
2024-03-05T02:53:57.071Z,79.85
2024-03-05T02:56:24.630Z,79.92
2024-03-05T02:58:52.387Z,80.08
2024-03-05T03:01:20.212Z,80.23
2024-03-05T03:03:47.816Z,80.40
2024-03-05T03:06:15.491Z,80.55
2024-03-05T03:08:43.140Z,80.40
2024-03-05T03:11:11.094Z,80.52
2024-03-05T03:13:38.875Z,80.53
2024-03-05T03:16:06.430Z,81.07
2024-03-05T03:18:34.086Z,81.64
2024-03-05T03:21:01.653Z,81.61
2024-03-05T03:23:29.619Z,81.59
2024-03-05T03:25:57.182Z,81.48
2024-03-05T03:28:24.733Z,81.41
2024-03-05T03:30:52.398Z,81.60
2024-03-05T03:33:20.061Z,81.67
2024-03-05T03:35:47.521Z,81.68
2024-03-05T03:38:15.072Z,81.48
2024-03-05T03:40:42.656Z,81.44
2024-03-05T03:43:10.407Z,81.46
2024-03-05T03:45:38.076Z,81.36
2024-03-05T03:48:05.638Z,81.30
2024-03-05T03:50:33.579Z,81.48
2024-03-05T03:53:01.195Z,81.66
2024-03-05T03:55:28.941Z,81.73
2024-03-05T03:57:56.484Z,81.75
2024-03-05T04:00:24.125Z,81.79
2024-03-05T04:02:51.695Z,81.76
2024-03-05T04:05:19.383Z,81.62
2024-03-05T04:07:47.142Z,81.48
2024-03-05T04:10:14.971Z,81.37
2024-03-05T04:12:42.753Z,81.35
2024-03-05T04:15:10.905Z,81.20
2024-03-05T04:17:38.942Z,81.13
2024-03-05T04:20:06.868Z,80.87
2024-03-05T04:22:34.650Z,80.73
2024-03-05T04:25:02.406Z,80.69
2024-03-05T04:27:29.965Z,80.62
2024-03-05T04:29:57.628Z,80.56
2024-03-05T04:32:25.314Z,80.39
2024-03-05T04:34:52.970Z,80.53
2024-03-05T04:37:20.608Z,80.50
2024-03-05T04:39:48.565Z,80.36
2024-03-05T04:42:16.242Z,80.44
2024-03-05T04:44:43.792Z,80.51
2024-03-05T04:47:11.345Z,80.39
2024-03-05T04:49:39.030Z,80.36
2024-03-05T04:52:06.661Z,80.46
2024-03-05T04:54:34.326Z,80.59
2024-03-05T04:57:01.882Z,80.42
2024-03-05T04:59:29.567Z,80.38
2024-03-05T05:01:57.285Z,80.34
2024-03-05T05:04:25.095Z,80.37
2024-03-05T05:06:53.036Z,80.41
2024-03-05T05:09:20.733Z,80.34
2024-03-05T05:11:48.490Z,80.30
2024-03-05T05:14:16.134Z,80.20
2024-03-05T05:16:43.805Z,80.29
2024-03-05T05:19:11.452Z,80.44
2024-03-05T05:21:39.117Z,80.42
2024-03-05T05:24:06.673Z,80.52
2024-03-05T05:26:34.330Z,80.41
2024-03-05T05:29:02.037Z,80.47
2024-03-05T05:31:29.896Z,80.62
2024-03-05T05:33:57.826Z,80.54
2024-03-05T05:36:25.497Z,80.52
2024-03-05T05:38:53.053Z,80.41
2024-03-05T05:41:20.716Z,80.35
2024-03-05T05:43:48.310Z,80.30
2024-03-05T05:46:15.981Z,80.36
2024-03-05T05:48:43.831Z,80.11
2024-03-05T05:51:11.602Z,80.13
2024-03-05T05:53:39.420Z,79.92
2024-03-05T05:56:07.052Z,80.22
2024-03-05T05:58:34.793Z,80.50
2024-03-05T06:01:02.438Z,80.73
2024-03-05T06:03:29.978Z,81.08
2024-03-05T06:05:57.532Z,81.18
2024-03-05T06:08:25.199Z,81.01
2024-03-05T06:10:52.786Z,80.72
2024-03-05T06:13:20.559Z,80.80
2024-03-05T06:15:48.190Z,80.97
2024-03-05T06:18:15.879Z,80.94
2024-03-05T06:20:43.833Z,81.03
2024-03-05T06:23:11.944Z,80.85
2024-03-05T06:25:39.659Z,80.67
2024-03-05T06:28:07.312Z,80.60
2024-03-05T06:30:34.864Z,80.59
2024-03-05T06:33:02.578Z,80.47
2024-03-05T06:35:30.392Z,80.17
2024-03-05T06:37:58.701Z,80.09
2024-03-05T06:40:26.765Z,80.12
2024-03-05T06:42:54.874Z,79.86
2024-03-05T06:45:22.683Z,79.80
2024-03-05T06:47:54.324Z,79.73
2024-03-05T06:50:22.306Z,79.74
2024-03-05T06:52:49.884Z,79.96
2024-03-05T06:55:17.536Z,80.11
2024-03-05T06:57:45.080Z,80.18
2024-03-05T07:00:12.639Z,79.97
2024-03-05T07:02:40.303Z,79.77
2024-03-05T07:05:08.111Z,79.92
2024-03-05T07:07:35.801Z,80.01
2024-03-05T07:10:03.493Z,79.92
2024-03-05T07:12:31.488Z,79.93
2024-03-05T07:14:59.129Z,79.85
2024-03-05T07:17:26.682Z,79.70
2024-03-05T07:19:54.595Z,79.71
2024-03-05T07:22:22.248Z,79.73
2024-03-05T07:24:49.979Z,79.63
2024-03-05T07:27:17.552Z,79.73
2024-03-05T07:29:45.201Z,79.51
2024-03-05T07:32:12.784Z,79.50
2024-03-05T07:34:40.497Z,79.34
2024-03-05T07:37:08.490Z,79.23
2024-03-05T07:39:36.051Z,79.04
2024-03-05T07:42:03.816Z,79.09
2024-03-05T07:44:31.437Z,79.02
2024-03-05T07:46:59.145Z,78.96
2024-03-05T07:49:26.696Z,79.05
2024-03-05T07:51:54.257Z,79.08
2024-03-05T07:54:21.918Z,79.01
2024-03-05T07:56:49.576Z,79.05
2024-03-05T07:59:17.177Z,78.87
2024-03-05T08:01:45.124Z,78.73
2024-03-05T08:04:12.870Z,78.40
2024-03-05T08:06:40.535Z,78.36
2024-03-05T08:09:08.153Z,78.42
2024-03-05T08:11:35.903Z,78.27
2024-03-05T08:14:03.756Z,78.10
2024-03-05T08:16:31.716Z,78.14
2024-03-05T08:18:59.450Z,78.04
2024-03-05T08:21:27.118Z,77.95
2024-03-05T08:23:54.784Z,77.79
2024-03-05T08:26:22.364Z,77.81
2024-03-05T08:28:50.415Z,77.97
2024-03-05T08:31:18.096Z,78.00
2024-03-05T08:33:45.884Z,77.88
2024-03-05T08:36:13.484Z,77.82
2024-03-05T08:38:41.156Z,77.83
2024-03-05T08:41:08.955Z,77.76
2024-03-05T08:43:36.719Z,77.75
2024-03-05T08:46:04.352Z,77.75
2024-03-05T08:48:31.895Z,77.72
2024-03-05T08:50:59.576Z,77.83
2024-03-05T08:53:27.534Z,77.83
2024-03-05T08:55:55.169Z,77.80
2024-03-05T08:58:22.992Z,77.80
2024-03-05T09:00:50.685Z,77.89
2024-03-05T09:03:18.489Z,77.68
2024-03-05T09:05:48.145Z,77.67
2024-03-05T09:08:16.268Z,77.68
2024-03-05T09:10:43.881Z,77.55
2024-03-05T09:13:11.489Z,77.44
2024-03-05T09:15:42.849Z,77.23
2024-03-05T09:18:12.093Z,77.25
2024-03-05T09:20:39.701Z,77.41
2024-03-05T09:23:07.352Z,77.52
2024-03-05T09:25:35.028Z,77.44
2024-03-05T09:28:02.681Z,77.49
2024-03-05T09:30:30.237Z,77.36
2024-03-05T09:32:57.900Z,77.16
2024-03-05T09:35:26.093Z,77.15
2024-03-05T09:37:53.930Z,77.44
2024-03-05T09:40:21.633Z,77.46
2024-03-05T09:42:49.675Z,77.54
2024-03-05T09:45:17.721Z,77.42
2024-03-05T09:47:46.206Z,77.28
2024-03-05T09:50:14.270Z,77.32
2024-03-05T09:52:42.261Z,77.28
2024-03-05T09:55:10.100Z,77.21
2024-03-05T09:57:37.795Z,77.17
2024-03-05T10:00:05.498Z,77.14
2024-03-05T10:02:33.257Z,77.00
2024-03-05T10:05:01.082Z,76.82
2024-03-05T10:07:29.187Z,76.76
2024-03-05T10:09:56.827Z,76.89
2024-03-05T10:12:24.489Z,76.21
2024-03-05T10:14:54.748Z,75.69
2024-03-05T10:17:22.573Z,76.18
2024-03-05T10:19:50.152Z,76.12
2024-03-05T10:22:17.696Z,75.48
2024-03-05T10:24:45.246Z,74.91
2024-03-05T10:27:12.958Z,74.40
2024-03-05T10:29:40.773Z,74.12
2024-03-05T10:32:08.377Z,74.00
2024-03-05T10:34:36.443Z,73.42
2024-03-05T10:37:04.072Z,72.71
2024-03-05T10:39:31.620Z,72.13
2024-03-05T10:41:59.184Z,72.12
2024-03-05T10:44:26.844Z,71.69
2024-03-05T10:46:54.433Z,71.62
2024-03-05T10:49:22.113Z,71.41
2024-03-05T10:51:49.845Z,71.15
2024-03-05T10:54:17.391Z,70.50
2024-03-05T10:56:45.622Z,70.24
2024-03-05T10:59:13.438Z,70.84
2024-03-05T11:01:41.869Z,71.05
2024-03-05T11:04:10.285Z,71.35
2024-03-05T11:06:37.849Z,71.48
2024-03-05T11:09:05.616Z,71.53
2024-03-05T11:11:33.412Z,71.26
2024-03-05T11:14:01.182Z,70.68
2024-03-05T11:16:30.796Z,70.63
2024-03-05T11:18:58.729Z,70.74
2024-03-05T11:21:26.394Z,71.15
2024-03-05T11:23:54.417Z,71.79
2024-03-05T11:26:23.081Z,72.10
2024-03-05T11:28:50.928Z,72.66
2024-03-05T11:31:20.580Z,72.62
2024-03-05T11:33:49.712Z,72.75
2024-03-05T11:36:17.363Z,73.05
2024-03-05T11:38:45.025Z,73.11
2024-03-05T11:41:12.753Z,73.28
2024-03-05T11:43:40.376Z,73.39
2024-03-05T11:46:08.010Z,73.36
2024-03-05T11:48:35.887Z,73.09
2024-03-05T11:51:03.742Z,73.13
2024-03-05T11:53:31.402Z,73.06
2024-03-05T11:55:59.125Z,72.66
2024-03-05T11:58:27.142Z,72.20
2024-03-05T12:00:55.105Z,72.25
2024-03-05T12:03:22.674Z,72.71
2024-03-05T12:05:50.444Z,72.87
2024-03-05T12:08:18.105Z,72.71
2024-03-05T12:10:45.724Z,72.71
2024-03-05T12:13:13.824Z,72.18
2024-03-05T12:15:41.589Z,71.85
2024-03-05T12:18:09.336Z,71.52
2024-03-05T12:20:37.022Z,71.32
2024-03-05T12:23:04.853Z,70.90
2024-03-05T12:25:32.565Z,70.56
2024-03-05T12:28:00.303Z,69.85
2024-03-05T12:30:27.863Z,68.92
2024-03-05T12:32:55.752Z,67.93
2024-03-05T12:35:23.499Z,67.75
2024-03-05T12:37:51.497Z,68.33
2024-03-05T12:40:19.239Z,68.74
2024-03-05T12:42:46.891Z,69.09
2024-03-05T12:45:14.451Z,68.74
2024-03-05T12:47:42.137Z,68.67
2024-03-05T12:50:10.036Z,68.77
2024-03-05T12:52:38.067Z,68.78
2024-03-05T12:55:05.798Z,68.66
2024-03-05T12:57:33.584Z,68.61
2024-03-05T13:00:01.132Z,68.22
2024-03-05T13:02:29.258Z,68.44
2024-03-05T13:04:58.936Z,68.59
2024-03-05T13:07:27.680Z,68.52
2024-03-05T13:09:55.688Z,67.82
2024-03-05T13:12:23.348Z,68.33
2024-03-05T13:14:50.912Z,68.46
2024-03-05T13:17:18.773Z,68.62
2024-03-05T13:19:46.684Z,67.93
2024-03-05T13:22:14.875Z,67.52
2024-03-05T13:24:42.875Z,67.52
2024-03-05T13:27:10.428Z,67.46
2024-03-05T13:29:38.398Z,67.34
2024-03-05T13:32:06.159Z,66.84
2024-03-05T13:34:34.042Z,66.88
2024-03-05T13:37:01.649Z,66.29
2024-03-05T13:39:29.350Z,66.34
2024-03-05T13:41:56.997Z,66.13
2024-03-05T13:44:25.081Z,66.35
2024-03-05T13:46:53.374Z,66.22
2024-03-05T13:49:21.769Z,66.16
2024-03-05T13:51:50.020Z,64.80
2024-03-05T13:54:17.681Z,64.52
2024-03-05T13:56:45.259Z,64.66
2024-03-05T13:59:13.113Z,65.35
2024-03-05T14:01:41.013Z,66.12
2024-03-05T14:04:08.754Z,65.60
2024-03-05T14:06:36.403Z,65.73
2024-03-05T14:09:04.060Z,66.04
2024-03-05T14:11:32.253Z,66.27
2024-03-05T14:14:00.040Z,65.79
2024-03-05T14:16:28.111Z,65.54
2024-03-05T14:18:55.728Z,66.05
2024-03-05T14:21:23.389Z,66.21
2024-03-05T14:23:51.060Z,65.14
2024-03-05T14:26:18.723Z,64.75
2024-03-05T14:28:46.441Z,64.71
2024-03-05T14:31:14.138Z,64.89
2024-03-05T14:33:41.718Z,64.21
2024-03-05T14:36:11.209Z,62.71
2024-03-05T14:38:41.015Z,59.15
2024-03-05T14:41:09.011Z,55.54
2024-03-05T14:43:36.670Z,52.25
2024-03-05T14:46:04.309Z,49.58
2024-03-05T14:48:31.981Z,47.75
2024-03-05T14:50:59.629Z,47.30
2024-03-05T14:53:27.296Z,47.31
2024-03-05T14:55:55.231Z,47.95
2024-03-05T14:58:23.220Z,48.50
2024-03-05T15:00:50.901Z,49.44
2024-03-05T15:03:18.557Z,49.80
2024-03-05T15:05:46.817Z,50.65
2024-03-05T15:08:14.677Z,51.76
2024-03-05T15:10:42.368Z,51.53
2024-03-05T15:13:10.022Z,52.11
2024-03-05T15:15:37.793Z,52.46
2024-03-05T15:18:05.470Z,52.81
2024-03-05T15:20:33.105Z,53.30
2024-03-05T15:23:00.866Z,54.18
2024-03-05T15:25:28.696Z,54.96
2024-03-05T15:28:02.106Z,56.37
2024-03-05T15:30:33.609Z,57.47
2024-03-05T15:33:02.490Z,58.07
2024-03-05T15:35:30.574Z,58.91
2024-03-05T15:37:58.330Z,59.29
2024-03-05T15:40:25.897Z,59.49
2024-03-05T15:42:53.676Z,59.76
2024-03-05T15:45:21.286Z,60.10
2024-03-05T15:47:49.105Z,60.44
2024-03-05T15:50:17.007Z,60.86
2024-03-05T15:52:44.980Z,60.84
2024-03-05T15:55:12.781Z,60.87
2024-03-05T15:57:40.318Z,60.66
2024-03-05T16:00:08.002Z,61.22
2024-03-05T16:02:35.705Z,61.57
2024-03-05T16:05:17.555Z,62.13
2024-03-05T16:07:50.998Z,62.34
2024-03-05T16:10:18.800Z,62.95
2024-03-05T16:12:46.369Z,63.66
2024-03-05T16:15:14.064Z,64.22
2024-03-05T16:17:41.820Z,64.97
2024-03-05T16:20:09.822Z,64.95
2024-03-05T16:22:37.509Z,64.82
2024-03-05T16:25:05.277Z,65.13
2024-03-05T16:27:32.950Z,65.85
2024-03-05T16:30:00.533Z,66.40
2024-03-05T16:32:28.248Z,66.80
2024-03-05T16:34:56.048Z,66.84
2024-03-05T16:37:23.716Z,67.01
2024-03-05T16:39:51.473Z,67.07
2024-03-05T16:42:19.126Z,67.60
2024-03-05T16:44:47.080Z,68.27
2024-03-05T16:47:14.797Z,68.71
2024-03-05T16:49:42.564Z,69.00
2024-03-05T16:52:10.378Z,69.63
2024-03-05T16:54:38.059Z,70.25
2024-03-05T16:57:05.506Z,70.76
2024-03-05T16:59:33.162Z,71.03
2024-03-05T17:02:00.777Z,71.23
2024-03-05T17:04:28.622Z,71.71
2024-03-05T17:06:56.417Z,72.25
2024-03-05T17:09:24.105Z,72.69
2024-03-05T17:11:52.118Z,73.25
2024-03-05T17:14:19.945Z,73.57
2024-03-05T17:16:47.716Z,73.53
2024-03-05T17:19:15.575Z,73.67
2024-03-05T17:21:43.147Z,73.75
2024-03-05T17:24:10.816Z,73.93
2024-03-05T17:26:38.355Z,74.33
2024-03-05T17:29:06.038Z,74.38
2024-03-05T17:31:33.832Z,74.57
2024-03-05T17:34:01.552Z,74.74
2024-03-05T17:36:29.514Z,75.04
2024-03-05T17:38:57.075Z,74.99
2024-03-05T17:41:24.911Z,75.08
2024-03-05T17:43:52.616Z,75.04
2024-03-05T17:46:20.282Z,75.11
2024-03-05T17:48:47.838Z,75.26
2024-03-05T17:51:15.489Z,75.41
2024-03-05T17:53:43.044Z,75.45
2024-03-05T17:56:10.777Z,75.51
2024-03-05T17:58:38.587Z,75.56
2024-03-05T18:01:06.566Z,75.67
2024-03-05T18:03:34.201Z,75.57
2024-03-05T18:06:01.870Z,75.90
2024-03-05T18:08:29.519Z,75.94
2024-03-05T18:10:57.190Z,75.99
2024-03-05T18:13:24.983Z,75.98
2024-03-05T18:15:52.650Z,76.00
2024-03-05T18:18:20.371Z,75.99
2024-03-05T18:20:47.995Z,75.83
2024-03-05T18:23:15.807Z,75.72
2024-03-05T18:25:43.658Z,75.86
2024-03-05T18:28:11.737Z,75.83
2024-03-05T18:30:39.759Z,75.98
2024-03-05T18:33:09.090Z,76.30
2024-03-05T18:35:37.840Z,76.35
2024-03-05T18:40:36.278Z,76.80
2024-03-05T18:43:03.968Z,76.84
2024-03-05T18:45:31.620Z,76.79
2024-03-05T18:48:05.577Z,76.88
2024-03-05T18:50:38.960Z,76.97
2024-03-05T18:53:07.776Z,76.95
2024-03-05T18:55:35.719Z,76.95
2024-03-05T18:58:03.332Z,77.19
2024-03-05T19:00:31.018Z,77.45
2024-03-05T19:02:58.560Z,77.58
2024-03-05T19:05:26.229Z,77.64
2024-03-05T19:07:53.848Z,77.80
2024-03-05T19:10:21.660Z,77.92
2024-03-05T19:12:49.214Z,78.00
2024-03-05T19:15:17.171Z,78.18
2024-03-05T19:17:44.971Z,78.23
2024-03-05T19:20:12.611Z,78.35
2024-03-05T19:22:40.475Z,78.48
2024-03-05T19:25:08.234Z,78.69
2024-03-05T19:27:35.790Z,78.81
2024-03-05T19:30:03.446Z,78.83
2024-03-05T19:32:31.018Z,78.92
2024-03-05T19:34:58.845Z,78.94
2024-03-05T19:37:26.711Z,78.96
2024-03-05T19:39:54.805Z,78.99
2024-03-05T19:42:22.480Z,78.95
2024-03-05T19:44:50.055Z,78.93
2024-03-05T19:47:17.715Z,78.93
2024-03-05T19:49:45.485Z,78.98
2024-03-05T19:52:13.132Z,79.04
2024-03-05T19:54:40.702Z,79.16
2024-03-05T19:57:08.152Z,79.26
2024-03-05T19:59:35.803Z,79.20
2024-03-05T20:02:03.497Z,79.14
2024-03-05T20:04:31.137Z,79.07
2024-03-05T20:06:59.395Z,79.22
2024-03-05T20:09:27.262Z,79.15
2024-03-05T20:11:55.009Z,79.29
2024-03-05T20:14:22.700Z,79.45
2024-03-05T20:16:50.419Z,79.42
2024-03-05T20:19:18.112Z,79.54
2024-03-05T20:21:45.768Z,79.40
2024-03-05T20:24:13.342Z,79.58
2024-03-05T20:26:40.890Z,79.48
2024-03-05T20:29:08.563Z,79.54
2024-03-05T20:31:36.343Z,79.59
2024-03-05T20:34:04.281Z,79.67
2024-03-05T20:36:31.847Z,79.68
2024-03-05T20:38:59.510Z,79.64
2024-03-05T20:41:27.175Z,79.60
2024-03-05T20:43:54.860Z,79.50
2024-03-05T20:46:22.512Z,79.43
2024-03-05T20:48:50.048Z,79.33
2024-03-05T20:51:17.617Z,79.54
2024-03-05T20:53:45.172Z,79.49
2024-03-05T20:56:12.913Z,79.63
2024-03-05T20:58:40.646Z,79.61
2024-03-05T21:01:08.276Z,79.69
2024-03-05T21:03:35.920Z,79.61
2024-03-05T21:06:03.479Z,79.77
2024-03-05T21:08:31.048Z,79.85
2024-03-05T21:10:58.722Z,79.91
2024-03-05T21:13:26.777Z,80.03
2024-03-05T21:15:54.542Z,80.22
2024-03-05T21:18:22.117Z,80.37
2024-03-05T21:20:49.777Z,80.09
2024-03-05T21:23:18.736Z,80.07
2024-03-05T21:26:02.862Z,80.10
2024-03-05T21:28:34.589Z,80.09
2024-03-05T21:31:02.426Z,80.07
2024-03-05T21:33:29.989Z,79.93
2024-03-05T21:35:57.449Z,79.89
2024-03-05T21:38:24.991Z,79.98
2024-03-05T21:40:52.684Z,79.88
2024-03-05T21:43:20.314Z,79.88
2024-03-05T21:45:47.975Z,79.84
2024-03-05T21:48:16.012Z,79.83
2024-03-05T21:50:43.707Z,79.65
2024-03-05T21:53:11.313Z,79.49
2024-03-05T21:55:38.996Z,79.40
2024-03-05T21:58:06.801Z,79.48
2024-03-05T22:00:34.400Z,79.49
2024-03-05T22:03:02.132Z,79.50
2024-03-05T22:05:29.696Z,79.57
2024-03-05T22:07:57.303Z,79.49
2024-03-05T22:10:25.102Z,79.69
2024-03-05T22:12:53.075Z,79.63
2024-03-05T22:15:20.644Z,79.71
2024-03-05T22:17:48.217Z,79.80
2024-03-05T22:20:15.943Z,79.85
2024-03-05T22:22:43.720Z,79.83
2024-03-05T22:25:11.285Z,79.88
2024-03-05T22:27:53.178Z,80.01
2024-03-05T22:30:21.769Z,79.98
2024-03-05T22:32:49.443Z,79.90
2024-03-05T22:35:17.166Z,79.95
2024-03-05T22:37:46.489Z,79.86
2024-03-05T22:40:15.064Z,80.01
2024-03-05T22:42:42.738Z,80.03
2024-03-05T22:45:10.345Z,80.25
2024-03-05T22:47:38.238Z,80.28
2024-03-05T22:50:05.974Z,80.42
2024-03-05T22:52:33.725Z,80.45
2024-03-05T22:55:01.360Z,80.34
2024-03-05T22:57:29.022Z,80.13
2024-03-05T22:59:56.564Z,80.18
2024-03-05T23:02:24.647Z,80.09
2024-03-05T23:04:52.335Z,80.09
2024-03-05T23:07:20.063Z,80.05
2024-03-05T23:09:47.622Z,79.92
2024-03-05T23:12:15.294Z,80.00
2024-03-05T23:14:42.945Z,79.84
2024-03-05T23:17:10.651Z,79.89
2024-03-05T23:19:38.499Z,79.79
2024-03-05T23:22:06.242Z,79.89
2024-03-05T23:24:33.800Z,79.84
2024-03-05T23:27:01.363Z,79.85
2024-03-05T23:29:29.538Z,79.69
2024-03-05T23:31:57.278Z,79.84
2024-03-05T23:34:24.953Z,79.99
2024-03-05T23:36:52.511Z,79.93
2024-03-05T23:39:20.179Z,79.93
2024-03-05T23:41:47.809Z,79.87
2024-03-05T23:44:15.616Z,79.93
2024-03-05T23:46:43.199Z,80.06
2024-03-05T23:49:11.233Z,79.76
2024-03-05T23:51:39.209Z,79.86
2024-03-05T23:54:07.177Z,79.72
2024-03-05T23:56:34.749Z,79.64
2024-03-05T23:59:02.438Z,79.70
